Time;durP1;ratioP1;P1;durP2;ratioP2;P2;SDS_P1;SDS_P2;PMS_P1;PMS_P2;Temp;Humidity;BMP_temperature;BMP_pressure;BME280_temperature;BME280_humidity;BME280_pressure;Samples;Min_cycle;Max_cycle;Signal;HPM_P1;HPM_P2
2022/06/09 00:00:48;;;;;;;16.25;7.03;;;14.80;99.90;;;;;;5066847;28;20029;-80
2022/06/09 00:03:37;;;;;;;27.48;7.80;;;14.80;99.90;;;;;;5066206;28;20024;-80
2022/06/09 00:06:06;;;;;;;16.45;6.40;;;14.80;99.90;;;;;;5071869;28;20023;-79
2022/06/09 00:08:32;;;;;;;13.90;6.22;;;14.80;99.90;;;;;;5060461;28;20033;-79
2022/06/09 00:11:02;;;;;;;16.17;7.10;;;14.80;99.90;;;;;;5072217;28;20063;-79
2022/06/09 00:13:28;;;;;;;11.45;5.90;;;14.80;99.90;;;;;;5072904;28;20434;-80
2022/06/09 00:15:54;;;;;;;20.02;6.40;;;14.90;99.90;;;;;;5068315;28;20488;-79
2022/06/09 00:18:21;;;;;;;14.73;5.63;;;14.90;99.90;;;;;;5072011;28;20024;-80
2022/06/09 00:20:47;;;;;;;19.27;6.68;;;14.90;99.90;;;;;;5072156;28;20025;-79
2022/06/09 00:23:15;;;;;;;12.38;4.68;;;14.90;99.90;;;;;;5055123;28;20380;-79
2022/06/09 00:25:40;;;;;;;14.25;5.43;;;14.90;99.90;;;;;;5072049;28;20033;-79
2022/06/09 00:28:07;;;;;;;18.83;4.95;;;14.90;99.90;;;;;;5072297;28;20107;-79
2022/06/09 00:30:32;;;;;;;17.75;5.03;;;14.90;99.90;;;;;;5055766;28;20056;-79
2022/06/09 00:32:58;;;;;;;13.45;5.13;;;14.90;99.90;;;;;;5073357;28;20067;-79
2022/06/09 00:35:23;;;;;;;17.65;5.05;;;14.90;99.90;;;;;;5072451;28;20166;-79
2022/06/09 00:37:49;;;;;;;10.75;4.55;;;14.90;99.90;;;;;;5055394;28;20589;-79
2022/06/09 00:40:15;;;;;;;10.35;4.13;;;14.90;99.90;;;;;;5071923;28;20048;-79
2022/06/09 00:42:42;;;;;;;12.45;4.38;;;14.90;99.90;;;;;;5071752;28;20093;-79
2022/06/09 00:45:34;;;;;;;13.48;4.30;;;14.90;99.90;;;;;;5055650;28;20185;-80
2022/06/09 00:48:21;;;;;;;13.00;3.72;;;14.90;99.90;;;;;;5071958;28;20016;-80
2022/06/09 00:50:51;;;;;;;14.70;4.70;;;14.90;99.90;;;;;;5071890;28;20085;-80
2022/06/09 00:53:22;;;;;;;8.85;3.85;;;14.90;99.90;;;;;;5071611;28;20507;-80
2022/06/09 00:55:48;;;;;;;14.63;4.07;;;14.90;99.90;;;;;;5072019;28;20024;-79
2022/06/09 00:58:21;;;;;;;15.68;4.78;;;14.90;99.90;;;;;;5055212;28;20036;-79
2022/06/09 01:00:51;;;;;;;17.33;4.55;;;14.90;99.90;;;;;;5071927;28;20101;-79
2022/06/09 01:03:19;;;;;;;10.18;4.05;;;14.80;99.90;;;;;;5073006;28;20020;-80
2022/06/09 01:05:47;;;;;;;18.58;3.83;;;14.90;99.90;;;;;;5073424;28;20021;-80
2022/06/09 01:08:14;;;;;;;14.90;4.35;;;14.80;99.90;;;;;;5072963;28;20360;-79
2022/06/09 01:10:40;;;;;;;13.75;3.80;;;14.80;99.90;;;;;;5055050;28;20029;-80
2022/06/09 01:13:06;;;;;;;11.18;3.85;;;14.80;99.90;;;;;;5071712;28;20047;-80
2022/06/09 01:15:59;;;;;;;14.43;3.90;;;14.80;99.90;;;;;;5071611;28;20025;-80
2022/06/09 01:18:38;;;;;;;13.25;4.22;;;14.70;99.90;;;;;;5072902;28;20016;-80
2022/06/09 01:21:19;;;;;;;12.30;4.22;;;14.60;99.90;;;;;;5071664;28;20596;-79
2022/06/09 01:24:19;;;;;;;10.40;3.58;;;14.60;99.90;;;;;;5072796;28;20024;-80
2022/06/09 01:27:15;;;;;;;16.40;4.50;;;14.60;99.90;;;;;;5072662;28;20021;-80
2022/06/09 01:29:46;;;;;;;14.52;4.32;;;14.50;99.90;;;;;;5073022;28;20082;-80
2022/06/09 01:32:32;;;;;;;19.30;5.18;;;14.50;99.90;;;;;;5065622;28;20016;-81
2022/06/09 01:35:31;;;;;;;15.20;4.90;;;14.40;99.90;;;;;;5071793;28;20033;-79
2022/06/09 01:37:59;;;;;;;12.75;3.58;;;14.40;99.90;;;;;;5071220;28;20356;-79
2022/06/09 01:40:25;;;;;;;12.88;4.30;;;14.40;99.90;;;;;;5070391;28;20045;-79
2022/06/09 01:42:56;;;;;;;19.20;5.38;;;14.40;99.90;;;;;;5071348;28;20115;-79
2022/06/09 01:45:45;;;;;;;17.00;4.32;;;14.30;99.90;;;;;;5072504;28;20054;-80
2022/06/09 01:48:14;;;;;;;14.32;4.45;;;14.40;99.90;;;;;;5071161;28;20475;-79
2022/06/09 01:50:43;;;;;;;13.57;4.85;;;14.30;99.90;;;;;;5071402;28;20020;-79
2022/06/09 01:53:14;;;;;;;16.92;4.20;;;14.30;99.90;;;;;;5072313;28;20043;-78
2022/06/09 01:55:49;;;;;;;18.13;5.95;;;14.30;99.90;;;;;;5071403;28;20029;-78
2022/06/09 01:58:19;;;;;;;18.05;5.45;;;14.30;99.90;;;;;;5072753;28;20036;-78
2022/06/09 02:00:46;;;;;;;15.32;5.07;;;14.20;99.90;;;;;;5070917;28;20020;-78
2022/06/09 02:03:16;;;;;;;19.73;5.00;;;14.20;99.90;;;;;;5071252;28;20012;-79
2022/06/09 02:05:48;;;;;;;15.55;5.90;;;14.20;99.90;;;;;;5074350;28;20021;-79
2022/06/09 02:08:17;;;;;;;14.35;5.13;;;14.20;99.90;;;;;;5074694;28;20024;-79
2022/06/09 02:10:52;;;;;;;16.92;4.97;;;14.20;99.90;;;;;;5076131;28;20070;-79
2022/06/09 02:13:26;;;;;;;18.85;5.53;;;14.10;99.90;;;;;;5075951;28;20103;-79
2022/06/09 02:15:53;;;;;;;;;;;14.10;99.90;;;;;;5075135;28;20103;-79
2022/06/09 02:18:25;;;;;;;13.52;4.20;;;14.10;99.90;;;;;;5074200;28;19907;-79
2022/06/09 02:21:01;;;;;;;20.15;5.20;;;14.10;99.90;;;;;;5075815;28;20060;-79
2022/06/09 02:23:28;;;;;;;18.48;5.22;;;14.10;99.90;;;;;;5074456;28;20112;-79
2022/06/09 02:25:54;;;;;;;18.70;5.05;;;14.00;99.90;;;;;;5051790;28;20245;-79
2022/06/09 02:28:19;;;;;;;14.40;4.82;;;14.00;99.90;;;;;;5073987;28;20456;-79
2022/06/09 02:30:45;;;;;;;19.08;4.85;;;14.00;99.90;;;;;;5075125;28;20520;-80
2022/06/09 02:33:11;;;;;;;11.32;3.85;;;14.00;99.90;;;;;;5074112;28;20547;-80
2022/06/09 02:35:37;;;;;;;18.48;5.05;;;14.00;99.90;;;;;;5075259;28;20468;-79
2022/06/09 02:38:04;;;;;;;15.00;5.10;;;14.00;99.90;;;;;;5057372;28;20039;-79
2022/06/09 02:40:31;;;;;;;21.58;5.30;;;14.00;99.90;;;;;;5081004;28;20055;-79
2022/06/09 02:42:57;;;;;;;20.38;4.97;;;14.00;99.90;;;;;;5095379;28;20110;-79
2022/06/09 02:45:23;;;;;;;18.55;5.93;;;13.90;99.90;;;;;;5095348;28;20051;-79
2022/06/09 02:47:49;;;;;;;16.98;4.82;;;14.00;99.90;;;;;;5090683;28;20027;-79
2022/06/09 02:50:15;;;;;;;19.70;5.80;;;13.90;99.90;;;;;;5073892;28;20480;-80
2022/06/09 02:52:44;;;;;;;16.50;5.75;;;13.90;99.90;;;;;;5056593;28;20028;-79
2022/06/09 02:55:11;;;;;;;19.40;6.15;;;13.90;99.90;;;;;;5057240;28;20035;-80
2022/06/09 02:57:36;;;;;;;16.65;5.28;;;13.90;99.90;;;;;;5075023;28;20024;-79
2022/06/09 03:00:05;;;;;;;19.25;5.30;;;13.80;99.90;;;;;;5057844;28;20039;-79
2022/06/09 03:02:31;;;;;;;16.45;5.03;;;13.90;99.90;;;;;;5058125;28;20131;-80
2022/06/09 03:04:58;;;;;;;13.07;4.55;;;13.80;99.90;;;;;;5041738;28;20115;-79
2022/06/09 03:07:24;;;;;;;16.13;5.57;;;13.90;99.90;;;;;;5040660;28;20027;-79
2022/06/09 03:09:51;;;;;;;13.95;5.35;;;13.80;99.90;;;;;;5057298;28;20024;-80
2022/06/09 03:12:17;;;;;;;20.63;5.60;;;13.80;99.90;;;;;;5076516;28;20119;-79
2022/06/09 03:14:43;;;;;;;15.63;5.30;;;13.80;99.90;;;;;;5057837;28;20013;-79
2022/06/09 03:17:09;;;;;;;15.77;5.57;;;13.80;99.90;;;;;;5057070;28;20020;-80
2022/06/09 03:19:36;;;;;;;14.68;4.47;;;13.80;99.90;;;;;;5057044;28;20418;-79
2022/06/09 03:22:02;;;;;;;17.58;6.10;;;13.80;99.90;;;;;;5056862;28;20029;-79
2022/06/09 03:24:28;;;;;;;19.23;5.93;;;13.80;99.90;;;;;;5056778;28;20024;-79
2022/06/09 03:26:53;;;;;;;20.67;5.20;;;13.80;99.90;;;;;;5040006;28;20020;-80
2022/06/09 03:29:20;;;;;;;17.73;5.20;;;13.80;99.90;;;;;;5056099;28;20036;-79
2022/06/09 03:31:46;;;;;;;17.95;6.05;;;13.80;99.90;;;;;;5078043;28;20048;-79
2022/06/09 03:34:13;;;;;;;14.00;4.95;;;13.90;99.90;;;;;;5067852;28;20059;-79
2022/06/09 03:36:38;;;;;;;18.20;5.10;;;13.80;99.90;;;;;;5056272;28;20033;-79
2022/06/09 03:39:04;;;;;;;20.52;6.20;;;13.80;99.90;;;;;;5074428;28;20478;-79
2022/06/09 03:41:30;;;;;;;20.65;5.72;;;13.80;99.90;;;;;;5038957;28;20050;-79
2022/06/09 03:43:55;;;;;;;13.50;5.20;;;13.80;99.90;;;;;;5039634;28;20079;-79
2022/06/09 03:46:21;;;;;;;18.25;5.60;;;13.80;99.90;;;;;;5056247;28;20456;-79
2022/06/09 03:48:47;;;;;;;18.77;5.80;;;13.80;99.90;;;;;;5074159;28;20020;-79
2022/06/09 03:51:13;;;;;;;16.38;4.95;;;13.90;99.90;;;;;;5056250;28;20084;-79
2022/06/09 03:53:40;;;;;;;17.02;5.07;;;13.80;99.90;;;;;;5073558;28;20103;-79
2022/06/09 03:56:13;;;;;;;16.55;6.25;;;13.80;99.90;;;;;;5055952;28;20028;-79
2022/06/09 03:58:39;;;;;;;16.92;5.32;;;13.90;99.90;;;;;;5055946;28;20013;-79
2022/06/09 04:01:04;;;;;;;14.15;5.05;;;13.90;99.90;;;;;;5055930;28;20028;-79
2022/06/09 04:03:30;;;;;;;16.90;5.00;;;14.00;99.90;;;;;;5039264;28;20028;-79
2022/06/09 04:05:57;;;;;;;13.15;4.88;;;14.00;99.90;;;;;;5039231;28;20123;-79
2022/06/09 04:08:22;;;;;;;15.73;4.78;;;14.00;99.90;;;;;;5073307;28;20455;-79
2022/06/09 04:10:48;;;;;;;13.98;4.93;;;14.00;99.90;;;;;;5038933;28;20119;-79
2022/06/09 04:13:15;;;;;;;16.08;5.03;;;14.00;99.90;;;;;;5055886;28;20086;-79
2022/06/09 04:15:43;;;;;;;16.85;5.65;;;14.10;99.90;;;;;;5050989;28;20025;-79
2022/06/09 04:18:10;;;;;;;15.05;5.47;;;14.20;99.90;;;;;;5055540;28;20352;-79
2022/06/09 04:20:36;;;;;;;15.93;4.30;;;14.30;99.90;;;;;;5055342;28;20020;-79
2022/06/09 04:23:02;;;;;;;16.85;4.70;;;14.30;99.90;;;;;;5073310;28;20051;-80
2022/06/09 04:25:28;;;;;;;14.55;4.80;;;14.40;99.90;;;;;;5055323;28;20017;-80
2022/06/09 04:27:54;;;;;;;18.33;4.78;;;14.40;99.90;;;;;;5055193;28;20520;-79
2022/06/09 04:30:21;;;;;;;17.15;4.25;;;14.50;99.90;;;;;;5071967;28;20389;-79
2022/06/09 04:32:47;;;;;;;16.17;4.32;;;14.50;99.90;;;;;;5073488;28;20426;-79
2022/06/09 04:35:13;;;;;;;13.48;4.65;;;14.60;99.90;;;;;;5055374;28;20464;-80
2022/06/09 04:40:24;;;;;;;13.70;4.30;;;14.60;99.90;;;;;;5073323;28;20387;-80
2022/06/09 04:42:50;;;;;;;20.58;5.30;;;14.60;99.90;;;;;;5055658;28;20048;-80
2022/06/09 04:45:16;;;;;;;16.58;5.55;;;14.50;99.90;;;;;;5091582;28;20352;-79
2022/06/09 04:47:42;;;;;;;17.33;4.88;;;14.60;99.90;;;;;;5073476;28;20032;-79
2022/06/09 04:50:10;;;;;;;18.67;5.15;;;14.70;99.90;;;;;;5071406;28;20460;-80
2022/06/09 04:52:35;;;;;;;18.90;5.43;;;14.70;99.90;;;;;;5074819;28;20056;-80
2022/06/09 04:55:01;;;;;;;17.08;5.30;;;14.70;99.90;;;;;;5041033;28;20047;-79
2022/06/09 04:57:26;;;;;;;13.90;5.25;;;14.70;99.90;;;;;;5073810;28;20025;-80
2022/06/09 04:59:54;;;;;;;15.07;5.47;;;14.80;99.90;;;;;;5091982;28;20016;-80
2022/06/09 05:02:20;;;;;;;16.30;5.72;;;14.80;99.90;;;;;;5074841;28;20125;-80
2022/06/09 05:04:45;;;;;;;11.57;5.22;;;14.80;99.90;;;;;;5075348;28;20107;-79
2022/06/09 05:07:11;;;;;;;13.10;5.07;;;14.80;99.90;;;;;;5041759;28;20027;-79
2022/06/09 05:09:36;;;;;;;16.02;5.45;;;14.90;99.90;;;;;;5093356;28;20460;-80
2022/06/09 05:12:02;;;;;;;17.95;5.45;;;14.90;99.90;;;;;;5058471;28;20051;-80
2022/06/09 05:14:28;;;;;;;19.40;6.20;;;14.90;99.90;;;;;;5074938;28;20066;-81
2022/06/09 05:16:53;;;;;;;19.20;6.32;;;14.90;99.90;;;;;;5086321;28;20054;-80
2022/06/09 05:19:19;;;;;;;23.90;6.63;;;14.90;99.90;;;;;;5067469;28;20047;-79
2022/06/09 05:21:45;;;;;;;20.88;6.03;;;14.80;99.90;;;;;;5031494;28;20028;-80
2022/06/09 05:24:11;;;;;;;18.95;6.20;;;14.90;99.90;;;;;;5047657;28;20059;-79
2022/06/09 05:26:37;;;;;;;14.60;5.47;;;14.90;99.90;;;;;;5044094;28;20021;-79
2022/06/09 05:29:03;;;;;;;14.60;5.68;;;14.80;99.90;;;;;;5073494;28;20025;-80
2022/06/09 05:31:29;;;;;;;16.75;5.30;;;14.80;99.90;;;;;;5040976;28;20384;-79
2022/06/09 05:33:55;;;;;;;12.93;4.50;;;14.80;99.90;;;;;;5046193;28;20029;-80
2022/06/09 05:36:20;;;;;;;10.13;4.38;;;14.90;99.90;;;;;;5072577;28;20016;-80
2022/06/09 05:47:07;;;;;;;11.57;2.35;;;15.00;99.90;;;;;;5060975;28;19947;-80
2022/06/09 05:49:32;;;;;;;8.32;2.35;;;15.00;99.90;;;;;;5061473;28;20044;-80
2022/06/09 05:51:58;;;;;;;13.40;2.80;;;15.10;99.90;;;;;;5058336;28;20074;-81
2022/06/09 05:54:24;;;;;;;8.32;2.65;;;15.20;99.90;;;;;;5043982;28;20078;-80
2022/06/09 05:56:50;;;;;;;9.32;1.88;;;15.30;99.90;;;;;;5096515;28;20112;-81
2022/06/09 05:59:16;;;;;;;9.10;2.65;;;15.20;99.90;;;;;;5072801;28;20012;-81
2022/06/09 06:01:42;;;;;;;7.53;1.90;;;15.30;99.90;;;;;;5084772;28;20036;-80
2022/06/09 06:04:10;;;;;;;8.13;1.83;;;15.40;99.90;;;;;;5058098;28;20483;-81
2022/06/09 06:06:36;;;;;;;5.82;1.90;;;15.40;99.90;;;;;;5065778;28;20107;-81
2022/06/09 06:09:05;;;;;;;16.38;2.30;;;15.40;99.90;;;;;;5069872;28;20120;-80
2022/06/09 06:11:31;;;;;;;9.55;1.45;;;15.50;99.90;;;;;;5085061;28;20440;-80
2022/06/09 06:13:57;;;;;;;6.47;1.73;;;15.50;99.90;;;;;;5057608;28;20020;-81
2022/06/09 06:16:24;;;;;;;5.18;1.58;;;15.50;99.90;;;;;;5057904;28;20467;-80
2022/06/09 06:18:50;;;;;;;5.45;1.88;;;15.60;99.90;;;;;;5075393;28;20020;-80
2022/06/09 06:21:16;;;;;;;5.50;1.70;;;15.60;99.90;;;;;;5067029;28;20046;-80
2022/06/09 06:23:43;;;;;;;6.13;1.23;;;15.60;99.90;;;;;;5076973;28;20016;-80
2022/06/09 06:26:09;;;;;;;8.57;1.40;;;15.70;99.90;;;;;;5076845;28;20026;-82
2022/06/09 06:28:37;;;;;;;7.68;1.42;;;15.70;99.90;;;;;;5061004;28;20024;-80
2022/06/09 06:31:03;;;;;;;6.57;1.30;;;15.80;99.90;;;;;;5077210;28;20455;-79
2022/06/09 06:33:29;;;;;;;4.35;1.27;;;15.80;99.90;;;;;;5077377;28;20024;-80
2022/06/09 06:35:54;;;;;;;5.80;1.23;;;15.80;99.90;;;;;;5077688;28;20128;-80
2022/06/09 06:38:21;;;;;;;4.32;1.40;;;15.90;99.90;;;;;;5060168;28;20020;-81
2022/06/09 06:40:47;;;;;;;5.68;1.33;;;15.90;99.90;;;;;;5076839;28;20044;-80
2022/06/09 06:43:13;;;;;;;9.65;1.85;;;16.00;99.90;;;;;;5077444;28;20030;-81
2022/06/09 06:45:40;;;;;;;7.00;1.85;;;16.00;99.90;;;;;;5073699;28;20020;-81
2022/06/09 06:48:06;;;;;;;6.32;1.15;;;16.10;99.90;;;;;;5077169;28;20115;-80
2022/06/09 06:50:32;;;;;;;4.25;1.27;;;16.20;99.90;;;;;;5075958;28;20135;-80
2022/06/09 06:52:57;;;;;;;6.78;1.42;;;16.20;99.90;;;;;;5095183;28;20027;-78
2022/06/09 06:55:23;;;;;;;6.00;1.05;;;16.20;99.90;;;;;;5057108;28;20333;-78
2022/06/09 06:57:49;;;;;;;7.97;1.30;;;16.30;99.90;;;;;;5064708;28;20475;-79
2022/06/09 07:00:18;;;;;;;6.95;1.02;;;16.40;99.90;;;;;;5088622;28;20012;-79
2022/06/09 07:02:45;;;;;;;5.07;1.25;;;16.40;99.90;;;;;;5083482;28;20028;-79
2022/06/09 07:05:11;;;;;;;8.07;0.90;;;16.50;99.90;;;;;;5049009;28;20023;-78
2022/06/09 07:07:38;;;;;;;5.78;0.80;;;16.60;99.90;;;;;;5065454;28;20020;-79
2022/06/09 07:10:05;;;;;;;3.05;0.80;;;16.60;99.90;;;;;;5061794;28;20020;-80
2022/06/09 07:12:31;;;;;;;4.38;1.17;;;16.70;99.90;;;;;;5073478;28;20577;-77
2022/06/09 07:14:57;;;;;;;6.88;0.80;;;16.70;99.90;;;;;;5046574;28;20023;-77
2022/06/09 07:17:24;;;;;;;9.38;1.20;;;16.70;99.90;;;;;;5062062;28;20544;-78
2022/06/09 07:19:50;;;;;;;4.43;0.90;;;16.80;99.90;;;;;;5078404;28;20027;-77
2022/06/09 07:22:15;;;;;;;2.75;0.55;;;16.80;99.50;;;;;;5055667;28;20072;-78
2022/06/09 07:24:41;;;;;;;4.65;1.20;;;16.80;99.40;;;;;;5058399;28;20017;-78
2022/06/09 07:27:07;;;;;;;5.93;0.82;;;16.90;99.60;;;;;;5057150;28;20032;-77
2022/06/09 07:29:33;;;;;;;3.90;0.82;;;16.90;99.50;;;;;;5056259;28;20027;-78
2022/06/09 07:32:00;;;;;;;4.78;0.90;;;17.00;99.10;;;;;;5056205;28;20025;-76
2022/06/09 07:34:26;;;;;;;4.50;0.90;;;17.10;98.90;;;;;;5061335;28;20021;-76
2022/06/09 07:36:52;;;;;;;3.50;0.75;;;17.10;98.10;;;;;;5055269;28;20051;-77
2022/06/09 07:39:18;;;;;;;3.95;0.85;;;17.10;98.10;;;;;;5055727;28;20032;-78
2022/06/09 07:41:44;;;;;;;7.90;1.30;;;17.20;97.90;;;;;;5055562;28;20049;-77
2022/06/09 07:44:10;;;;;;;5.28;0.90;;;17.20;97.80;;;;;;5022825;28;20048;-77
2022/06/09 07:46:36;;;;;;;7.80;1.20;;;17.30;97.80;;;;;;5064378;28;20027;-79
2022/06/09 07:49:03;;;;;;;5.13;1.17;;;17.40;96.90;;;;;;5082654;22;20005;-80
2022/06/09 07:51:29;;;;;;;5.13;1.30;;;17.30;96.40;;;;;;5012893;28;20038;-81
2022/06/09 07:53:56;;;;;;;7.13;1.02;;;17.50;96.50;;;;;;5013157;28;20478;-81
2022/06/09 07:56:22;;;;;;;4.78;1.50;;;17.40;96.40;;;;;;5013201;28;20026;-82
2022/06/09 07:58:48;;;;;;;6.03;2.10;;;17.50;96.40;;;;;;4980460;28;20549;-85
2022/06/09 08:01:14;;;;;;;5.93;1.58;;;17.50;96.40;;;;;;5012940;28;20496;-83
2022/06/09 08:03:41;;;;;;;3.83;2.15;;;17.50;95.90;;;;;;4995832;28;20026;-84
2022/06/09 08:06:08;;;;;;;4.80;1.42;;;17.50;95.90;;;;;;5012581;28;20022;-80
2022/06/09 08:08:34;;;;;;;3.90;1.63;;;17.60;96.00;;;;;;5012256;28;20034;-80
2022/06/09 08:11:00;;;;;;;6.97;1.45;;;17.60;95.60;;;;;;5012223;28;20030;-79
2022/06/09 08:13:26;;;;;;;6.30;1.30;;;17.60;95.50;;;;;;4992628;28;20022;-80
2022/06/09 08:15:52;;;;;;;7.10;1.20;;;17.70;95.60;;;;;;4977918;28;20057;-79
2022/06/09 08:18:17;;;;;;;5.40;1.85;;;17.70;95.80;;;;;;5011954;28;20449;-79
2022/06/09 08:20:44;;;;;;;7.85;1.92;;;17.70;95.90;;;;;;4995569;28;20085;-79
2022/06/09 08:23:15;;;;;;;6.85;1.40;;;17.80;95.80;;;;;;4995848;28;20041;-79
2022/06/09 08:25:43;;;;;;;11.40;1.48;;;17.80;95.80;;;;;;5013527;28;20026;-79
2022/06/09 08:28:10;;;;;;;4.38;1.23;;;17.90;95.80;;;;;;5012413;28;20022;-80
2022/06/09 08:30:37;;;;;;;6.00;1.42;;;17.90;95.90;;;;;;4994178;28;20037;-79
2022/06/09 08:33:04;;;;;;;4.25;1.50;;;17.90;95.20;;;;;;5011643;28;20026;-80
2022/06/09 08:35:29;;;;;;;7.57;1.95;;;18.00;95.10;;;;;;5011529;28;20033;-81
2022/06/09 08:37:55;;;;;;;3.60;1.30;;;18.10;94.90;;;;;;5013338;28;20034;-82
2022/06/09 08:40:41;;;;;;;2.80;1.05;;;18.10;95.10;;;;;;4995395;28;20052;-82
2022/06/09 08:43:25;;;;;;;6.03;1.13;;;18.20;95.00;;;;;;5012846;28;20041;-82
2022/06/09 08:45:54;;;;;;;;;;;18.30;94.90;;;;;;5012175;28;20068;-85
2022/06/09 08:48:23;;;;;;;3.72;1.00;;;18.40;95.00;;;;;;5013932;28;20368;-84
2022/06/09 08:51:03;;;;;;;5.13;0.75;;;18.50;95.00;;;;;;5012074;28;20088;-78
2022/06/09 08:53:32;;;;;;;2.30;0.50;;;18.60;94.70;;;;;;5013522;28;20470;-81
2022/06/09 08:56:04;;;;;;;3.10;0.50;;;18.70;94.40;;;;;;5012037;28;20025;-83
2022/06/09 08:58:41;;;;;;;4.78;0.60;;;18.80;93.20;;;;;;5013330;28;20454;-81
2022/06/09 09:01:29;;;;;;;5.45;0.77;;;18.90;92.20;;;;;;5012121;28;20026;-83
2022/06/09 09:04:06;;;;;;;2.85;0.60;;;19.00;91.60;;;;;;5013150;28;20411;-83
2022/06/09 09:06:44;;;;;;;6.35;0.73;;;19.10;91.00;;;;;;5011991;28;20018;-81
2022/06/09 09:09:17;;;;;;;5.55;0.80;;;19.20;90.80;;;;;;5012073;28;20022;-82
2022/06/09 09:11:43;;;;;;;7.67;0.80;;;19.20;90.70;;;;;;5013459;28;20030;-81
2022/06/09 09:14:15;;;;;;;5.32;0.93;;;19.20;90.60;;;;;;5013015;28;20312;-82
2022/06/09 09:16:54;;;;;;;5.68;1.10;;;19.30;90.80;;;;;;5015438;28;20049;-84
2022/06/09 09:19:25;;;;;;;7.60;0.93;;;19.40;90.70;;;;;;5016028;28;20029;-82
2022/06/09 09:22:08;;;;;;;6.65;1.00;;;19.40;90.60;;;;;;5016916;28;20073;-82
2022/06/09 09:25:03;;;;;;;4.55;1.05;;;19.40;90.90;;;;;;5015347;28;20419;-82
2022/06/09 09:27:55;;;;;;;3.75;0.82;;;19.50;91.00;;;;;;5016970;28;20471;-82
2022/06/09 09:30:27;;;;;;;6.40;1.30;;;19.60;90.80;;;;;;5005311;28;20088;-83
2022/06/09 09:32:55;;;;;;;4.45;1.40;;;19.60;90.70;;;;;;5011156;28;20037;-82
2022/06/09 09:35:30;;;;;;;2.92;0.75;;;19.60;90.90;;;;;;5008238;28;20053;-81
2022/06/09 09:37:58;;;;;;;8.32;1.17;;;19.80;91.10;;;;;;5015268;28;20121;-85
2022/06/09 09:40:34;;;;;;;5.57;1.40;;;19.90;90.90;;;;;;5014251;28;20040;-84
2022/06/09 09:43:05;;;;;;;5.13;1.30;;;20.00;90.70;;;;;;5015489;28;20030;-83
2022/06/09 09:45:42;;;;;;;6.07;1.08;;;20.10;90.70;;;;;;5015676;28;20153;-81
2022/06/09 09:48:30;;;;;;;5.78;1.13;;;20.10;90.60;;;;;;5015716;28;20068;-82
2022/06/09 09:51:10;;;;;;;6.60;1.33;;;20.00;90.60;;;;;;5015181;28;20057;-82
2022/06/09 09:53:39;;;;;;;3.22;1.08;;;20.00;90.50;;;;;;5015156;28;20481;-81
2022/06/09 09:56:33;;;;;;;5.28;1.60;;;20.10;90.70;;;;;;5012443;28;20022;-82
2022/06/09 09:59:01;;;;;;;3.80;1.55;;;20.20;90.60;;;;;;5014912;28;20029;-84
2022/06/09 10:01:28;;;;;;;5.57;1.17;;;20.20;90.60;;;;;;5016293;28;20065;-82
2022/06/09 10:10:07;;;;;;;3.47;0.80;;;20.30;89.60;;;;;;5016254;28;20054;-82
2022/06/09 10:12:33;;;;;;;;;;;20.40;89.20;;;;;;5016502;28;20501;-83
2022/06/09 10:15:11;;;;;;;5.63;1.30;;;20.50;87.90;;;;;;5014963;28;19905;-82
2022/06/09 10:18:02;;;;;;;4.32;1.08;;;20.50;87.30;;;;;;5015688;28;20025;-85
2022/06/09 10:20:30;;;;;;;4.22;1.00;;;20.40;87.10;;;;;;5015893;28;20556;-83
2022/06/09 10:23:11;;;;;;;6.43;1.20;;;20.30;86.60;;;;;;5013927;28;20042;-85
2022/06/09 10:25:55;;;;;;;5.55;1.08;;;20.10;87.00;;;;;;5013339;28;20048;-82
2022/06/09 10:28:30;;;;;;;;;;;19.90;86.80;;;;;;5015198;28;20044;-84
2022/06/09 10:31:08;;;;;;;5.43;1.48;;;19.80;87.10;;;;;;5015890;28;19905;-82
2022/06/09 10:33:46;;;;;;;6.40;1.25;;;19.70;87.40;;;;;;5014812;28;20351;-83
2022/06/09 10:36:36;;;;;;;9.68;1.42;;;19.70;87.40;;;;;;5014510;28;20504;-82
2022/06/09 10:39:36;;;;;;;6.68;1.08;;;19.70;87.30;;;;;;5014326;28;20414;-81
2022/06/09 10:42:33;;;;;;;10.85;1.50;;;19.70;87.10;;;;;;5014305;28;20033;-81
2022/06/09 10:45:20;;;;;;;5.60;1.23;;;20.00;87.50;;;;;;4987072;28;20045;-81
2022/06/09 10:56:40;;;;;;;4.22;1.00;;;21.70;82.20;;;;;;5015717;28;20088;-81
2022/06/09 10:59:14;;;;;;;6.05;0.63;;;22.20;81.50;;;;;;5014366;28;20025;-81
2022/06/09 11:01:40;;;;;;;4.45;0.80;;;22.70;79.00;;;;;;5013988;28;20092;-80
2022/06/09 11:04:12;;;;;;;4.55;0.63;;;23.30;76.00;;;;;;5015201;28;20026;-82
2022/06/09 11:07:08;;;;;;;5.03;0.95;;;23.90;73.60;;;;;;5014061;28;20030;-82
2022/06/09 11:09:33;;;;;;;4.00;0.57;;;24.40;69.70;;;;;;5015103;28;20080;-82
2022/06/09 11:12:26;;;;;;;3.80;0.73;;;24.40;67.20;;;;;;5014942;28;20029;-82
2022/06/09 11:15:11;;;;;;;6.55;0.85;;;24.10;63.70;;;;;;5013214;28;20030;-81
2022/06/09 11:17:50;;;;;;;3.95;0.55;;;23.70;64.00;;;;;;5014602;28;20030;-81
2022/06/09 11:20:34;;;;;;;8.18;0.80;;;23.40;64.50;;;;;;5013580;28;20083;-80
2022/06/09 11:23:32;;;;;;;7.80;0.70;;;23.40;65.70;;;;;;5013531;28;20124;-81
2022/06/09 11:26:20;;;;;;;5.55;1.05;;;23.60;63.20;;;;;;5013371;28;20133;-82
2022/06/09 11:29:00;;;;;;;2.17;0.40;;;23.80;63.70;;;;;;5014461;28;20030;-80
2022/06/09 11:31:48;;;;;;;5.40;0.65;;;24.30;64.90;;;;;;5014050;28;20029;-80
2022/06/09 11:34:45;;;;;;;2.25;0.40;;;24.50;64.00;;;;;;5013160;28;20014;-79
2022/06/09 11:37:35;;;;;;;2.25;0.30;;;24.80;63.50;;;;;;5013994;28;20041;-81
2022/06/09 11:40:12;;;;;;;3.08;0.47;;;24.90;62.30;;;;;;5014699;28;20108;-79
2022/06/09 11:42:56;;;;;;;2.17;0.40;;;25.00;62.10;;;;;;5013869;28;20490;-79
2022/06/09 11:45:32;;;;;;;2.05;0.40;;;24.90;61.10;;;;;;5012814;28;20054;-79
2022/06/09 11:48:02;;;;;;;6.68;0.68;;;24.80;60.60;;;;;;5014073;28;20025;-78
2022/06/09 11:50:37;;;;;;;3.63;0.40;;;24.90;60.60;;;;;;5012872;28;20049;-79
2022/06/09 11:53:04;;;;;;;4.55;0.45;;;25.10;60.20;;;;;;5013964;28;20025;-80
2022/06/09 11:55:57;;;;;;;2.42;0.40;;;25.30;60.10;;;;;;5012711;28;20064;-78
2022/06/09 11:58:34;;;;;;;3.90;0.52;;;25.40;59.40;;;;;;4993062;28;20037;-79
2022/06/09 12:01:16;;;;;;;3.80;0.50;;;25.60;59.10;;;;;;5008813;28;20022;-79
2022/06/09 12:04:18;;;;;;;5.15;0.55;;;25.80;58.40;;;;;;5013061;28;20049;-80
2022/06/09 12:07:12;;;;;;;2.25;0.45;;;25.90;58.20;;;;;;5012145;28;20081;-79
2022/06/09 12:10:26;;;;;;;2.42;0.30;;;26.00;58.00;;;;;;5014048;28;20053;-82
2022/06/09 12:13:16;;;;;;;1.73;0.45;;;26.20;57.50;;;;;;5012995;28;20033;-80
2022/06/09 12:15:59;;;;;;;5.57;0.57;;;26.30;57.10;;;;;;5012417;28;20056;-80
2022/06/09 12:18:32;;;;;;;2.92;0.40;;;26.40;56.70;;;;;;5026872;28;20033;-79
2022/06/09 12:21:05;;;;;;;2.92;0.40;;;26.50;56.30;;;;;;5011008;28;20056;-78
2022/06/09 12:23:51;;;;;;;2.10;0.40;;;26.60;55.00;;;;;;5006345;28;20038;-78
2022/06/09 12:26:19;;;;;;;2.75;0.40;;;26.60;54.50;;;;;;5017078;28;20036;-79
2022/06/09 12:28:52;;;;;;;4.03;0.47;;;26.70;54.50;;;;;;5013263;28;20072;-76
2022/06/09 12:31:26;;;;;;;3.35;0.30;;;26.70;53.50;;;;;;5012813;28;20033;-77
2022/06/09 12:34:03;;;;;;;3.28;0.35;;;26.90;53.60;;;;;;5012424;28;20034;-79
2022/06/09 12:36:35;;;;;;;4.25;0.60;;;27.10;52.80;;;;;;5013699;28;20137;-81
2022/06/09 12:39:05;;;;;;;3.15;0.47;;;27.30;52.80;;;;;;5013480;28;20022;-77
2022/06/09 12:41:38;;;;;;;5.25;0.57;;;27.30;52.60;;;;;;5028158;28;20149;-79
2022/06/09 12:44:23;;;;;;;4.20;0.57;;;27.30;52.50;;;;;;5012113;28;20112;-82
2022/06/09 12:47:17;;;;;;;1.98;0.40;;;27.30;52.50;;;;;;5010911;28;20363;-77
2022/06/09 12:49:46;;;;;;;2.08;0.40;;;27.30;52.50;;;;;;5008656;28;20053;-77
2022/06/09 12:52:38;;;;;;;4.60;0.77;;;27.20;52.20;;;;;;5012733;28;20073;-77
2022/06/09 12:55:26;;;;;;;2.45;0.30;;;27.00;51.70;;;;;;5012007;28;20492;-77
2022/06/09 12:58:33;;;;;;;2.67;0.50;;;26.70;51.60;;;;;;5011365;28;20525;-77
2022/06/09 13:01:02;;;;;;;3.70;0.50;;;26.50;51.70;;;;;;4991778;28;20052;-80
2022/06/09 13:03:34;;;;;;;3.53;0.40;;;26.50;52.10;;;;;;5011348;28;20474;-79
2022/06/09 13:06:25;;;;;;;4.60;0.50;;;26.70;51.90;;;;;;4993472;28;20015;-81
2022/06/09 13:08:58;;;;;;;3.08;0.50;;;26.90;51.40;;;;;;4992151;28;20030;-79
2022/06/09 13:14:25;;;;;;;3.60;0.70;;;26.90;51.30;;;;;;4993504;28;20037;-80
2022/06/09 13:16:55;;;;;;;5.03;0.43;;;26.80;51.40;;;;;;4993820;28;20057;-79
2022/06/09 13:19:25;;;;;;;4.25;0.52;;;26.70;51.10;;;;;;4992383;28;20027;-76
2022/06/09 13:21:52;;;;;;;2.35;0.50;;;26.50;50.80;;;;;;4993164;28;20043;-79
2022/06/09 13:24:36;;;;;;;5.10;0.68;;;26.30;51.00;;;;;;4976075;28;20356;-79
2022/06/09 13:27:07;;;;;;;3.15;0.63;;;26.10;51.20;;;;;;4993258;28;20027;-77
2022/06/09 13:29:41;;;;;;;5.18;0.80;;;26.00;51.50;;;;;;4992243;28;20022;-80
2022/06/09 13:32:24;;;;;;;3.55;0.50;;;26.00;51.70;;;;;;4993264;28;20030;-77
2022/06/09 13:34:54;;;;;;;2.90;0.38;;;26.10;51.50;;;;;;4992882;28;20037;-76